createdAt,value
2022-07-27T00:04:31.768Z,15.44
2022-07-27T00:09:36.600Z,15.35
2022-07-27T00:14:40.312Z,15.38
2022-07-27T00:19:45.411Z,15.33
2022-07-27T00:24:49.166Z,15.25
2022-07-27T00:29:52.853Z,15.18
2022-07-27T00:34:57.923Z,15.15
2022-07-27T00:40:02.392Z,15.09
2022-07-27T00:45:07.405Z,15.04
2022-07-27T00:50:12.829Z,14.95
2022-07-27T00:55:16.919Z,14.85
2022-07-27T01:00:21.358Z,14.78
2022-07-27T01:05:36.160Z,14.72
2022-07-27T01:10:42.943Z,14.68
2022-07-27T01:15:46.677Z,14.66
2022-07-27T01:20:51.852Z,14.61
2022-07-27T01:25:57.013Z,14.59
2022-07-27T01:31:00.873Z,14.54
2022-07-27T01:36:05.191Z,14.51
2022-07-27T01:41:10.239Z,14.47
2022-07-27T01:46:14.033Z,14.43
2022-07-27T01:51:17.871Z,14.37
2022-07-27T01:56:22.995Z,14.36
2022-07-27T02:01:27.051Z,14.28
2022-07-27T02:06:30.829Z,14.20
2022-07-27T02:11:53.465Z,14.15
2022-07-27T02:16:57.267Z,14.09
2022-07-27T02:22:02.558Z,14.02
2022-07-27T02:27:07.667Z,13.99
2022-07-27T02:32:11.428Z,13.90
2022-07-27T02:37:15.168Z,13.85
2022-07-27T02:42:20.318Z,13.83
2022-07-27T02:47:24.031Z,13.73
2022-07-27T02:52:27.737Z,13.71
2022-07-27T02:57:34.391Z,13.66
2022-07-27T03:02:39.754Z,13.63
2022-07-27T03:07:43.459Z,13.57
2022-07-27T03:12:48.532Z,13.56
2022-07-27T03:17:52.462Z,13.52
2022-07-27T03:22:56.289Z,13.46
2022-07-27T03:28:04.256Z,13.41
2022-07-27T03:33:08.527Z,13.37
2022-07-27T03:38:12.242Z,13.35
2022-07-27T03:43:17.280Z,13.32
2022-07-27T03:48:20.996Z,13.31
2022-07-27T03:53:24.764Z,13.28
2022-07-27T03:58:29.877Z,13.23
2022-07-27T04:03:33.580Z,13.22
2022-07-27T04:08:37.276Z,13.21
2022-07-27T04:13:44.345Z,13.19
2022-07-27T04:18:53.382Z,13.18
2022-07-27T04:23:57.072Z,13.04
2022-07-27T04:29:02.141Z,13.08
2022-07-27T04:34:05.907Z,13.05
2022-07-27T04:39:10.013Z,13.04
2022-07-27T04:44:15.322Z,13.07
2022-07-27T04:49:19.068Z,13.10
2022-07-27T04:54:22.834Z,13.21
2022-07-27T04:59:28.052Z,13.29
2022-07-27T05:04:31.933Z,13.40
2022-07-27T05:09:35.711Z,13.55
2022-07-27T05:14:40.768Z,13.75
2022-07-27T05:19:44.512Z,13.97
2022-07-27T05:24:48.241Z,14.11
2022-07-27T05:29:53.310Z,14.25
2022-07-27T05:34:57.045Z,14.37
2022-07-27T05:40:00.757Z,14.52
2022-07-27T05:45:06.716Z,14.71
2022-07-27T05:50:11.211Z,14.80
2022-07-27T05:55:15.024Z,14.98
2022-07-27T06:00:20.165Z,15.10
2022-07-27T06:05:23.908Z,15.28
2022-07-27T06:10:28.579Z,15.42
2022-07-27T06:15:34.531Z,15.59
2022-07-27T06:20:38.385Z,15.77
2022-07-27T06:25:42.118Z,15.97
2022-07-27T06:30:47.556Z,16.12
2022-07-27T06:35:51.269Z,16.23
2022-07-27T06:40:56.665Z,16.28
2022-07-27T06:46:03.222Z,16.31
2022-07-27T06:51:07.273Z,16.33
2022-07-27T06:56:10.983Z,16.47
2022-07-27T07:01:16.861Z,16.51
2022-07-27T07:06:20.661Z,16.59
2022-07-27T07:11:24.409Z,16.71
2022-07-27T07:16:29.561Z,16.81
2022-07-27T07:21:33.447Z,16.87
2022-07-27T07:26:37.703Z,16.94
2022-07-27T07:31:42.953Z,16.94
2022-07-27T07:36:47.859Z,16.95
2022-07-27T07:41:52.797Z,17.01
2022-07-27T07:46:57.893Z,17.14
2022-07-27T07:52:02.187Z,17.25
2022-07-27T07:57:06.194Z,17.42
2022-07-27T08:02:11.260Z,17.57
2022-07-27T08:07:14.960Z,17.72
2022-07-27T08:12:18.736Z,17.85
2022-07-27T08:17:24.088Z,17.99
2022-07-27T08:22:28.069Z,18.18
2022-07-27T08:27:40.122Z,18.34
2022-07-27T08:32:54.972Z,18.34
2022-07-27T08:37:59.252Z,18.42
2022-07-27T08:43:05.054Z,18.62
2022-07-27T08:48:13.968Z,18.76
2022-07-27T08:53:18.414Z,18.81
2022-07-27T08:58:22.193Z,18.95
2022-07-27T09:03:27.277Z,19.12
2022-07-27T09:08:31.699Z,19.29
2022-07-27T09:13:35.851Z,19.38
2022-07-27T09:18:41.337Z,19.43
2022-07-27T09:23:48.235Z,19.56
2022-07-27T09:28:55.209Z,19.58
2022-07-27T09:34:02.101Z,19.83
2022-07-27T09:39:06.961Z,20.44
2022-07-27T09:44:31.365Z,21.05
2022-07-27T09:49:36.855Z,20.91
2022-07-27T09:54:45.311Z,20.91
2022-07-27T09:59:49.120Z,20.83
2022-07-27T10:04:55.051Z,20.88
2022-07-27T10:09:59.246Z,20.67
2022-07-27T10:15:02.990Z,20.45
2022-07-27T10:20:11.213Z,20.57
2022-07-27T10:25:15.040Z,20.82
2022-07-27T10:30:24.052Z,21.57
2022-07-27T10:35:36.668Z,22.60
2022-07-27T10:40:41.208Z,23.47
2022-07-27T10:46:00.796Z,24.22
2022-07-27T10:51:09.573Z,25.09
2022-07-27T10:56:13.369Z,25.76
2022-07-27T11:01:19.645Z,25.99
2022-07-27T11:06:36.326Z,25.88
2022-07-27T11:11:48.859Z,24.79
2022-07-27T11:16:55.859Z,23.94
2022-07-27T11:22:04.709Z,23.59
2022-07-27T11:27:16.826Z,22.89
2022-07-27T11:32:22.579Z,23.01
2022-07-27T11:37:27.696Z,24.16
2022-07-27T11:42:38.325Z,25.27
2022-07-27T11:47:43.005Z,26.09
2022-07-27T11:53:01.282Z,26.23
2022-07-27T11:58:05.984Z,26.48
2022-07-27T12:03:20.495Z,26.06
2022-07-27T12:08:25.916Z,27.18
2022-07-27T12:13:33.541Z,28.33
2022-07-27T12:18:43.420Z,28.91
2022-07-27T12:23:52.789Z,29.56
2022-07-27T12:29:13.416Z,30.33
2022-07-27T12:34:17.612Z,29.09
2022-07-27T12:39:30.216Z,27.83
2022-07-27T12:44:35.148Z,26.98
2022-07-27T12:49:43.188Z,26.40
2022-07-27T12:54:51.275Z,26.78
2022-07-27T12:59:55.163Z,27.96
2022-07-27T13:04:58.934Z,27.23
2022-07-27T13:10:06.019Z,27.96
2022-07-27T13:15:10.608Z,29.26
2022-07-27T13:20:15.883Z,29.98
2022-07-27T13:25:21.611Z,28.75
2022-07-27T13:30:25.604Z,27.66
2022-07-27T13:35:29.485Z,26.99
2022-07-27T13:40:34.647Z,26.53
2022-07-27T13:45:43.188Z,26.09
2022-07-27T13:50:47.552Z,25.76
2022-07-27T13:55:52.741Z,25.73
2022-07-27T14:00:56.550Z,27.07
2022-07-27T14:06:00.823Z,27.95
2022-07-27T14:11:06.933Z,27.27
2022-07-27T14:16:11.307Z,26.45
2022-07-27T14:21:15.253Z,26.00
2022-07-27T14:26:22.246Z,25.67
2022-07-27T14:31:26.001Z,25.47
2022-07-27T14:36:30.114Z,25.28
2022-07-27T14:41:35.674Z,25.18
2022-07-27T14:46:39.471Z,25.30
2022-07-27T14:51:43.301Z,27.35
2022-07-27T14:56:48.380Z,27.59
2022-07-27T15:01:52.989Z,27.65
2022-07-27T15:06:58.361Z,29.24
2022-07-27T15:12:05.751Z,30.31
2022-07-27T15:17:09.472Z,30.92
2022-07-27T15:22:13.220Z,31.83
2022-07-27T15:27:18.257Z,31.87
2022-07-27T15:32:21.985Z,29.93
2022-07-27T15:37:27.142Z,28.90
2022-07-27T15:42:37.545Z,27.91
2022-07-27T15:47:41.578Z,27.16
2022-07-27T15:52:45.415Z,26.65
2022-07-27T15:57:50.498Z,26.23
2022-07-27T16:02:54.197Z,26.03
2022-07-27T16:07:58.338Z,25.74
2022-07-27T16:13:05.455Z,25.57
2022-07-27T16:18:09.215Z,25.51
2022-07-27T16:23:18.562Z,25.69
2022-07-27T16:28:28.736Z,25.80
2022-07-27T16:33:32.491Z,26.12
2022-07-27T16:38:36.473Z,26.96
2022-07-27T16:43:41.641Z,27.27
2022-07-27T16:48:45.834Z,27.70
2022-07-27T16:53:50.999Z,27.35
2022-07-27T16:58:56.045Z,27.21
2022-07-27T17:03:59.871Z,27.30
2022-07-27T17:09:03.788Z,27.14
2022-07-27T17:14:10.617Z,26.85
2022-07-27T17:19:15.915Z,26.52
2022-07-27T17:24:19.892Z,26.32
2022-07-27T17:29:25.018Z,26.06
2022-07-27T17:34:28.781Z,25.84
2022-07-27T17:39:32.615Z,25.49
2022-07-27T17:44:39.358Z,25.35
2022-07-27T17:49:43.826Z,25.13
2022-07-27T17:54:48.420Z,24.89
2022-07-27T17:59:53.473Z,24.61
2022-07-27T18:04:57.226Z,24.30
2022-07-27T18:10:00.998Z,24.04
2022-07-27T18:15:24.404Z,23.67
2022-07-27T18:20:28.375Z,23.54
2022-07-27T18:25:32.148Z,23.35
2022-07-27T18:30:37.694Z,23.12
2022-07-27T18:35:41.521Z,22.99
2022-07-27T18:40:47.008Z,22.78
2022-07-27T18:45:52.120Z,22.61
2022-07-27T18:50:56.059Z,22.57
2022-07-27T18:55:59.982Z,22.39
2022-07-27T19:01:05.187Z,22.18
2022-07-27T19:06:08.986Z,21.97
2022-07-27T19:11:12.864Z,21.85
2022-07-27T19:16:17.951Z,21.66
2022-07-27T19:21:21.688Z,21.56
2022-07-27T19:26:25.475Z,21.42
2022-07-27T19:31:30.700Z,21.28
2022-07-27T19:36:34.441Z,21.16
2022-07-27T19:41:38.253Z,20.99
2022-07-27T19:46:43.392Z,20.86
2022-07-27T19:51:47.207Z,20.70
2022-07-27T19:56:50.919Z,20.57
2022-07-27T20:01:56.172Z,20.40
2022-07-27T20:07:00.602Z,20.26
2022-07-27T20:12:05.047Z,20.15
2022-07-27T20:17:10.250Z,20.14
2022-07-27T20:22:14.046Z,19.99
2022-07-27T20:27:17.814Z,19.84
2022-07-27T20:32:22.934Z,19.68
2022-07-27T20:37:26.724Z,19.63
2022-07-27T20:42:30.539Z,19.53
2022-07-27T20:47:36.128Z,19.33
2022-07-27T20:52:40.778Z,19.33
2022-07-27T20:57:44.817Z,19.10
2022-07-27T21:02:49.969Z,19.15
2022-07-27T21:07:55.092Z,19.11
2022-07-27T21:12:58.857Z,19.03
2022-07-27T21:18:03.998Z,19.04
2022-07-27T21:23:25.294Z,18.93
2022-07-27T21:28:29.098Z,18.81
2022-07-27T21:33:39.389Z,18.76
2022-07-27T21:38:43.448Z,18.72
2022-07-27T21:43:47.224Z,18.63
2022-07-27T21:48:52.426Z,18.55
2022-07-27T21:53:56.798Z,18.44
2022-07-27T21:59:00.711Z,18.42
2022-07-27T22:04:06.232Z,18.34
2022-07-27T22:09:10.139Z,18.30
2022-07-27T22:14:14.121Z,18.26
2022-07-27T22:19:19.445Z,18.23
2022-07-27T22:24:23.353Z,18.15
2022-07-27T22:29:27.103Z,18.10
2022-07-27T22:34:32.229Z,18.07
2022-07-27T22:39:36.059Z,18.00
2022-07-27T22:44:43.115Z,17.90
2022-07-27T22:49:48.420Z,17.90
2022-07-27T22:54:52.193Z,17.82
2022-07-27T22:59:55.943Z,17.79
2022-07-27T23:05:02.712Z,17.76
2022-07-27T23:10:30.526Z,17.71
2022-07-27T23:15:34.628Z,17.62
2022-07-27T23:20:40.006Z,17.58
2022-07-27T23:25:43.684Z,17.56
2022-07-27T23:30:47.435Z,17.50
2022-07-27T23:35:52.539Z,17.49
2022-07-27T23:40:56.257Z,17.40
2022-07-27T23:46:00.003Z,17.33
2022-07-27T23:51:05.355Z,17.26
2022-07-27T23:56:09.040Z,17.12
